Últimos artigos:
MSK144, FT8… using an IC-9700 and WSJT-X
Resolvendo um problema de áudio no GNU Radio
Converter um número Real para o formato binário em vírgula flutuante segundo a Norma IEEE-754
VirtualBox sobre Debian 10 (buster) não encontra dispositivos USB
Falta de som no Morse Runner em Linux?
Touchpad tapping, em Debian Buster (10)
Últimas fotos:
Últimos METARs:
LPAZ 061600Z 35007KT 310V040 9999 FEW025 1...
LPFR 061600Z 16006KT CAVOK 16/10 Q1027=
LPHR 061600Z 25012KT 9999 FEW020 BKN035 18...
LPLA 061600Z /////KT 9999 FEW025 20/15 Q10...
LPMA 061600Z 02012KT 360V060 9999 BKN016 S...
LPPD 061600Z 26008KT 9999 FEW025 19/09 Q10...
LPPR 061600Z 18012KT 2000 R17/0900N -DZ BR...
LPPS 061600Z 07012KT 030V110 9999 SCT015 B...
LPPT 061600Z 31005KT 280V340 9999 FEW020 1...
Últimos QSOs:
2021/08/24-22:06 70cm EA8TL (JORGE)
2021/08/24-21:44 2m EA7BW (JUAN)
2021/08/24-21:43 2m CN8JQ (MOHAMED)
2021/08/24-21:42 2m EA8HB (HUGO)
2021/08/24-21:40 2m F4DXV (JEROME)
2021/08/24-21:39 2m EA1FID (PABLO)
  UTC

Fatal error: Allowed memory size of 268435456 bytes exhausted (tried to allocate 16777216 bytes) in /web/htdocs/www.airlomba.net/home/index.php on line 266